Aérodrome :
LOGIN :

S'inscrire | Disclaimer

   EN    FR    IT 

 










Légende :    VFR   VFR Marginal   IFR   IFR Intensif   IFR Très Intensif
Visi : 
Plafond : 
>= 8 km
>= 3000ft
5 à 8 km
1000 à 3000 ft
1500m à 5 km
500 à 1000 ft
800 à 1500m
200 à 500 ft
< 800m
< 200 ft
Symboles :   Orages  Brouillard  Fortes neiges  Fortes précipitations  Vent > 20 kt
SIGMETs :   Divers  Orages  Givrage  Turbulence  Onde Orograph.  Cendres Volcan.






- Altitude de l'aérodrome : 538 ft
- Code IATA : TNF


LFPN - Toussus Le Noble

DERNIER METAR :
  • 150800Z AUTO 26007KT 9999 FEW039 07/05 Q1003 NOSIG

METARs EXPIRÉS :
  • 150730Z AUTO 26009KT CAVOK 08/05 Q1002 NOSIG
  • 150700Z AUTO 26009KT CAVOK 08/06 Q1002 NOSIG
  • 150630Z AUTO 25012KT CAVOK 08/06 Q1001 NOSIG
  • 150600Z AUTO 25011KT CAVOK 08/06 Q1001 NOSIG
  • 150530Z AUTO 24012KT 9999 FEW025 SCT084 BKN130 09/07 Q1000 NOSIG

TAF TAF LFPN
Valide du 15 à 06h jusqu'au 15 à 15h UTC


150500Z 1506/1515 22013KT 9999 BKN030
PROB40
TEMPO 1510/1512 22018G30KT 4000 SHRA BKN014 SCT020TCU
TEMPO 1513/1515 -RA
ATIS : +33 1 39 56 54 70



MET'MAP, la Météo Aéronautique d'un coup d'oeil ! - Copyright ORBIFLY Décembre 2007 - Disclaimer

ORBIFLY MET'MAP TEAM :

Programmation & Développement : Alexandra Zaïnal
Sur une idée originale de : Baudouin d'Aumeries
Assistance à la programmation : Marc-Olivier Méhu
Soutien technique & logistique : Manuel Goepfert

Contact : metmap@orbifly.com




SOURCES & CREDITS :

   NOAA